Home > Products > Valid Products > TAF

000
FTUS43 KTOP 041100
TAFTOP
TAF
KTOP 041129Z 0412/0512 18008KT P6SM VCTS BKN100CB
     FM041400 18010KT P6SM SCT040 BKN120
     FM050000 15006KT P6SM VCTS SCT050 BKN090CB
     FM050600 16006KT P6SM SCT050 BKN120=



000
FTUS43 KTOP 040500
TAFTOP
TAF
KTOP 040520Z 0406/0506 18007KT P6SM SCT120 WS020/19030KT
     FM040900 18008KT P6SM VCTS BKN120CB
     FM041400 18010KT P6SM SCT040 BKN120=



000
FTUS43 KTOP 040500
TAFTOP
TAF
KTOP 040520Z 0406/0506 18007KT P6SM SCT120 WS020/19030KT
     FM040900 18008KT P6SM VCTS BKN120CB
     FM041400 18010KT P6SM SCT040 BKN120=



000
FTUS43 KTOP 040300 AAA
TAFTOP
TAF AMD
KTOP 040319Z 0403/0424 18007KT P6SM SCT120 WS020/19030KT
     FM040900 18008KT P6SM VCTS BKN120CB
     FM041400 18010KT P6SM SCT040 BKN120=



000
FTUS43 KTOP 032300
TAFTOP
TAF
KTOP 032324Z 0400/0424 18015G24KT P6SM SCT150
     FM040100 18007KT P6SM SCT120
     FM041400 18010KT P6SM SCT040 BKN120=



000
FTUS43 KTOP 032300
TAFTOP
TAF
KTOP 032324Z 0400/0424 18015G24KT P6SM SCT150
     FM040100 18007KT P6SM SCT120
     FM041400 18010KT P6SM SCT040 BKN120=



000
FTUS43 KTOP 031700
TAFTOP
TAF
KTOP 031727Z 0318/0418 19015G24KT P6SM SCT150
     FM040100 18008KT P6SM SCT120
     FM041400 19010KT P6SM BKN090=



000
FTUS43 KTOP 031700
TAFTOP
TAF
KTOP 031727Z 0318/0418 19015G24KT P6SM SCT150
     FM040100 18008KT P6SM SCT120
     FM041400 19010KT P6SM BKN090=



000
FTUS43 KTOP 031100
TAFTOP
TAF
KTOP 031123Z 0312/0412 17010KT P6SM VCSH SCT060 BKN150
     FM031400 19015G22KT P6SM SCT150
     FM040100 18010KT P6SM SCT120
     FM040600 19008KT P6SM VCTS BKN050CB=



000
FTUS43 KTOP 031100
TAFTOP
TAF
KTOP 031123Z 0312/0412 17010KT P6SM VCSH SCT060 BKN150
     FM031400 19015G22KT P6SM SCT150
     FM040100 18010KT P6SM SCT120
     FM040600 19008KT P6SM VCTS BKN050CB=



000
FTUS43 KTOP 030800 AAB
TAFTOP
TAF AMD
KTOP 030850Z 0309/0406 18010KT P6SM VCTS SCT050CB WS020/19030KT
      TEMPO 0309/0310 4SM -TSRA BKN035CB
     FM031100 18010KT P6SM SCT015
     FM031400 18015G22KT P6SM FEW150
     FM040100 16010KT P6SM SCT120=



000
FTUS43 KTOP 030700 AAA
TAFTOP
TAF AMD
KTOP 030742Z 0308/0406 18010KT P6SM VCTS SCT050CB WS020/19030KT
     FM031100 18010KT P6SM SCT015
     FM031400 18015G22KT P6SM FEW150
     FM040100 16010KT P6SM SCT120=



000
FTUS43 KTOP 030700 AAA
TAFTOP
TAF AMD
KTOP 030742Z 0308/0406 18010KT P6SM VCTS SCT050CB WS020/19030KT
     FM031100 18010KT P6SM SCT015
     FM031400 18015G22KT P6SM FEW150
     FM040100 16010KT P6SM SCT120=



000
FTUS43 KTOP 030500
TAFTOP
TAF
KTOP 030520Z 0306/0406 18010KT P6SM SCT150 WS020/19030KT
     FM031000 18010KT P6SM SCT015
     FM031400 18015G22KT P6SM FEW150
     FM040100 16010KT P6SM SCT120=



000
FTUS43 KTOP 022300
TAFTOP
TAF
KTOP 022320Z 0300/0324 17010G20KT P6SM SKC
     FM030100 18010KT P6SM FEW150
     FM031400 18015G22KT P6SM FEW150=



000
FTUS43 KTOP 022300
TAFTOP
TAF
KTOP 022320Z 0300/0324 17010G20KT P6SM SKC
     FM030100 18010KT P6SM FEW150
     FM031400 18015G22KT P6SM FEW150=



000
FTUS43 KTOP 021700
TAFTOP
TAF
KTOP 021722Z 0218/0318 16009KT P6SM VCSH BKN110
     FM022000 17010G20KT P6SM SCT120
     FM030100 19010KT P6SM FEW150=



000
FTUS43 KTOP 021700
TAFTOP
TAF
KTOP 021722Z 0218/0318 16009KT P6SM VCSH BKN110
     FM022000 17010G20KT P6SM SCT120
     FM030100 19010KT P6SM FEW150=



000
FTUS43 KTOP 021100
TAFTOP
TAF
KTOP 021137Z 0212/0312 13005KT P6SM BKN090
     FM021500 19011KT P6SM VCSH BKN090
     FM021900 17011KT P6SM SCT090 BKN250
     FM030100 17007KT P6SM SCT070=



000
FTUS43 KTOP 021100
TAFTOP
TAF
KTOP 021137Z 0212/0312 13005KT P6SM BKN090
     FM021500 19011KT P6SM VCSH BKN090
     FM021900 17011KT P6SM SCT090 BKN250
     FM030100 17007KT P6SM SCT070=



000
FTUS43 KTOP 020500
TAFTOP
TAF
KTOP 020520Z 0206/0306 16005KT P6SM SCT150 WS020/18030KT
     FM021000 16005KT P6SM SCT012
     FM021600 18013KT P6SM SCT012=



000
FTUS43 KTOP 020500
TAFTOP
TAF
KTOP 020520Z 0206/0306 16005KT P6SM SCT150 WS020/18030KT
     FM021000 16005KT P6SM SCT012
     FM021600 18013KT P6SM SCT012=



000
FTUS43 KTOP 012300
TAFTOP
TAF
KTOP 012320Z 0200/0224 16005KT P6SM SCT150
     FM021600 18013KT P6SM SCT012=



000
FTUS43 KTOP 012300
TAFTOP
TAF
KTOP 012320Z 0200/0224 16005KT P6SM SCT150
     FM021600 18013KT P6SM SCT012=



000
FTUS43 KTOP 011700
TAFTOP
TAF
KTOP 011720Z 0118/0218 18007KT P6SM SCT150=



000
FTUS43 KTOP 011700
TAFTOP
TAF
KTOP 011720Z 0118/0218 18007KT P6SM SCT150=



    US Dept of Commerce
    National Oceanic and Atmospheric Administration
    National Weather Service
    1325 East West Highway
    Silver Spring, MD 20910
    Page Author: NWS Internet Services Team
Disclaimer
Information Quality
Credits
Glossary
Privacy Policy
Freedom of Information Act (FOIA)
About Us
Career Opportunities